Baton Rouge, Louisiana
Current Conditions -  °F | °C
As of 1:00 PM on Monday 22 Dec 2014 (Local Time) from KBTR Reporting Station
Broken Clouds Broken Clouds  
Wind Chill: 72°   Ceiling: 1100
Heat Index: 72°   Visibility: 10mi
Dew Point: 64°   Wind: 12mph
Humidity: 76%   Direction: 180°S
Pressure: 29.7"   Gusts: NA
Location:  30.44°N, 91.19°W
Report Text: KBTR 221900Z 18010KT 10SM BKN011 22/18 A2970 RMK AO2 T02220178
Loading
Personal Weather Stations






























Interactive Weather Map New forecast layout! Learn more

10-Day Weather Forecast

Advertisements
Track Severe Weather on mobile